Mason City Municipal Airport
KMCW : now visible

Airfield :











YOU CAN JOIN US ON...

 
LOGIN :

Register | Disclaimer

   EN    FR    IT 

 









Legend :    VFR   Marginal VFR   IFR   Intensive IFR   Very Intensive IFR
Visi :
Ceiling :
>= 8 km
>= 3000ft
5 to 8 km
1000 to 3000 ft
1500m to 5 km
500 to 1000 ft
800 to 1500m
200 to 500 ft
< 800m
< 200 ft
Symbols :   Thunderstorms  Fog  Heavy snow  Heavy precipitations  Wind > 20 kt







- Airport Elevation : 1213 ft


KMCW - Mason City Municipal

CURRENT METAR :
  • 211353Z AUTO 17013KT 10SM CLR 14/08 A2979 RMK AO2 SLP083 T01390083

EXPIRED METARs :
  • 211253Z AUTO 18012KT 10SM FEW070 SCT110 14/08 A2980 RMK AO2 RAE24 SLP083 P0000 T01390083
  • 211153Z AUTO 20011KT 10SM -RA FEW075 BKN110 13/08 A2982 RMK AO2 RAB46 SLP091 P0000 60000 T01280078 10128 20094 53014

TAF KMCW
Valid from the 21 at 12:00 until the 22 at 12:00 UTC


211125Z 2112/2212 18008KT P6SM VCSH SCT050 BKN070
FM211500 18014G22KT P6SM BKN150
FM220100 13011KT P6SM SCT080
FM220500 14008KT P6SM VCSH BKN060
KZMP FIR / North America



MET'MAP, your aeronautical weather chart ! - Copyright ORBIFLY December 2007 - Disclaimer

ORBIFLY MET'MAP TEAM :

Programming & Development : Alexandra Zaïnal
Concept & Development : Baudouin d'Aumeries
Co-Development & Prog : Marc-Olivier Méhu
Technical & hardware support : Manuel Goepfert

Contact : metmap@orbifly.com




SOURCES & CREDITS :

   NOAA       Earth
Advisory